Time;durP1;ratioP1;P1;durP2;ratioP2;P2;SDS_P1;SDS_P2;PMS_P1;PMS_P2;Temp;Humidity;BMP_temperature;BMP_pressure;BME280_temperature;BME280_humidity;BME280_pressure;Samples;Min_cycle;Max_cycle;Signal;HPM_P1;HPM_P2
2022/05/22 00:10:01;;;;;;;9.43;5.30;;;12.70;99.50;;;;;;5093197;28;20443;-75
2022/05/22 00:16:51;;;;;;;7.03;4.90;;;12.60;99.60;;;;;;5093109;28;20530;-75
2022/05/22 00:30:53;;;;;;;7.83;5.43;;;12.50;99.80;;;;;;5104378;28;20436;-75
2022/05/22 00:45:52;;;;;;;6.23;5.50;;;12.40;99.90;;;;;;5092589;28;20908;-75
2022/05/22 00:53:30;;;;;;;8.43;6.30;;;12.30;99.90;;;;;;5092952;28;21004;-75
2022/05/22 00:56:44;;;;;;;9.13;6.07;;;12.30;99.90;;;;;;5093070;28;20501;-75
2022/05/22 01:16:30;;;;;;;9.67;6.70;;;12.00;99.90;;;;;;5096785;28;20455;-75
2022/05/22 01:27:15;;;;;;;10.77;7.40;;;11.90;99.90;;;;;;5095181;28;20823;-75
2022/05/22 01:55:03;;;;;;;11.97;7.90;;;11.60;99.90;;;;;;5096343;28;20471;-75
2022/05/22 02:06:02;;;;;;;7.60;6.80;;;11.50;99.90;;;;;;5115832;28;20436;-75
2022/05/22 02:09:43;;;;;;;10.53;6.57;;;11.50;99.90;;;;;;5115771;28;20435;-75
2022/05/22 02:13:21;;;;;;;10.07;7.70;;;11.40;99.90;;;;;;5102458;28;20542;-75
2022/05/22 02:28:03;;;;;;;8.07;7.23;;;11.30;99.90;;;;;;5116079;28;20439;-75
2022/05/22 03:40:34;;;;;;;8.87;8.07;;;10.70;99.90;;;;;;5113624;28;20556;-75
2022/05/22 03:43:49;;;;;;;10.60;7.67;;;10.60;99.90;;;;;;5098368;28;20453;-75
2022/05/22 03:54:05;;;;;;;8.70;7.83;;;10.60;99.90;;;;;;5114307;28;20528;-75
2022/05/22 03:57:25;;;;;;;9.93;8.20;;;10.60;99.90;;;;;;5113432;28;20447;-75
2022/05/22 04:35:48;;;;;;;10.17;8.60;;;10.60;99.90;;;;;;5509343;23;15192535;-74
2022/05/22 04:42:28;;;;;;;11.60;9.03;;;10.70;99.90;;;;;;6134620;23;20460;-73
2022/05/22 05:24:44;;;;;;;9.00;8.10;;;11.00;99.90;;;;;;6134444;23;20417;-74
2022/05/22 05:31:48;;;;;;;10.43;7.90;;;11.10;99.90;;;;;;6129708;23;20426;-74
2022/05/22 05:50:47;;;;;;;9.50;7.27;;;12.00;99.90;;;;;;6128515;23;20470;-73
2022/05/22 05:53:43;;;;;;;7.90;6.60;;;12.40;99.90;;;;;;6150454;23;20416;-74
2022/05/22 05:56:30;;;;;;;9.03;6.50;;;12.70;99.90;;;;;;6137826;23;20393;-74
2022/05/22 05:59:27;;;;;;;9.00;6.43;;;13.00;99.90;;;;;;6125899;23;20484;-75
2022/05/22 06:02:28;;;;;;;10.67;6.13;;;13.50;99.90;;;;;;6129096;23;20452;-75
2022/05/22 06:05:11;;;;;;;12.23;6.60;;;13.80;99.90;;;;;;6155315;23;20428;-75
2022/05/22 06:07:43;;;;;;;8.80;6.07;;;14.20;99.90;;;;;;6138574;23;20399;-75
2022/05/22 06:10:37;;;;;;;8.00;4.97;;;14.50;99.90;;;;;;6127593;23;20417;-75
2022/05/22 06:13:15;;;;;;;9.77;4.93;;;14.90;99.90;;;;;;6126459;23;20437;-75
2022/05/22 06:16:33;;;;;;;7.57;5.37;;;15.20;99.90;;;;;;6126480;23;20759;-75
2022/05/22 06:19:14;;;;;;;6.00;5.20;;;15.50;99.90;;;;;;6126264;23;20405;-75
2022/05/22 06:24:41;;;;;;;8.93;4.50;;;16.10;99.90;;;;;;6092539;23;20861;-72
2022/05/22 06:27:28;;;;;;;7.03;4.43;;;16.40;99.90;;;;;;6186624;23;20730;-72
2022/05/22 06:30:13;;;;;;;10.23;5.80;;;16.70;99.90;;;;;;6160361;23;20397;-72
2022/05/22 06:33:08;;;;;;;6.37;4.80;;;17.00;99.90;;;;;;6127839;23;20427;-72
2022/05/22 06:35:59;;;;;;;9.43;4.70;;;17.30;99.90;;;;;;6186262;23;20407;-72
2022/05/22 06:41:47;;;;;;;4.27;2.97;;;17.80;99.90;;;;;;6159899;23;20418;-73
2022/05/22 06:44:35;;;;;;;4.73;3.17;;;18.00;99.90;;;;;;6185253;23;20502;-72
2022/05/22 06:47:46;;;;;;;6.60;3.30;;;18.20;99.90;;;;;;6154444;23;20909;-72
2022/05/22 06:50:33;;;;;;;6.43;3.30;;;18.40;99.90;;;;;;6186570;23;20387;-71
2022/05/22 06:53:24;;;;;;;7.03;3.10;;;18.60;99.90;;;;;;6127312;23;20424;-72
2022/05/22 06:55:56;;;;;;;5.27;2.70;;;18.80;99.90;;;;;;6197200;23;20392;-73
2022/05/22 06:58:38;;;;;;;6.70;2.90;;;18.90;99.90;;;;;;6196435;23;20379;-72
2022/05/22 07:01:26;;;;;;;6.40;3.20;;;19.00;99.90;;;;;;6186405;23;20419;-73
2022/05/22 07:04:14;;;;;;;5.67;3.20;;;19.00;99.90;;;;;;6186754;23;20392;-72
2022/05/22 07:06:51;;;;;;;7.93;2.77;;;19.20;99.90;;;;;;6159954;23;20405;-73
2022/05/22 07:09:45;;;;;;;5.83;3.00;;;19.20;99.90;;;;;;6161335;23;20906;-72
2022/05/22 07:12:32;;;;;;;4.80;2.80;;;19.40;99.90;;;;;;6186395;23;20427;-72
2022/05/22 07:15:27;;;;;;;4.33;1.80;;;19.60;99.90;;;;;;6159657;23;20400;-72
2022/05/22 07:18:31;;;;;;;7.30;2.33;;;19.80;99.90;;;;;;6177947;23;20902;-72
2022/05/22 07:21:25;;;;;;;4.70;2.17;;;20.00;99.80;;;;;;6178959;23;20459;-72
2022/05/22 07:24:11;;;;;;;3.93;1.40;;;20.10;99.50;;;;;;6160096;23;20407;-72
2022/05/22 07:26:58;;;;;;;6.40;2.57;;;20.30;99.10;;;;;;6159961;23;20426;-72
2022/05/22 07:29:42;;;;;;;4.73;2.43;;;20.50;99.10;;;;;;6159711;23;20774;-72
2022/05/22 07:32:42;;;;;;;4.70;1.63;;;20.50;98.30;;;;;;6180540;23;20502;-74
2022/05/22 07:35:37;;;;;;;3.03;1.53;;;20.30;97.90;;;;;;6179275;23;20400;-74
2022/05/22 07:38:25;;;;;;;4.30;2.07;;;20.00;97.60;;;;;;6106631;23;20753;-71
2022/05/22 07:41:20;;;;;;;6.77;2.20;;;19.70;97.30;;;;;;6159400;23;20829;-73
2022/05/22 07:44:17;;;;;;;5.03;1.67;;;19.70;97.30;;;;;;6090101;23;20438;-74
2022/05/22 07:47:05;;;;;;;7.10;3.00;;;19.90;97.20;;;;;;6159693;23;20886;-74
2022/05/22 07:53:06;;;;;;;6.23;2.13;;;20.40;97.00;;;;;;6171074;23;20809;-75
2022/05/22 07:55:39;;;;;;;4.43;2.00;;;20.20;96.60;;;;;;6195669;23;20391;-75
2022/05/22 07:58:20;;;;;;;5.70;2.57;;;20.00;96.20;;;;;;6196200;23;20862;-74
2022/05/22 08:00:59;;;;;;;4.23;2.20;;;19.80;95.80;;;;;;6159997;23;20465;-78
2022/05/22 08:03:48;;;;;;;4.83;2.60;;;19.50;95.80;;;;;;6167564;23;20496;-79
2022/05/22 08:06:37;;;;;;;5.90;2.10;;;19.50;95.70;;;;;;6188346;23;20466;-79
2022/05/22 08:09:28;;;;;;;4.20;2.33;;;19.60;95.70;;;;;;6170849;23;20412;-80
2022/05/22 08:11:57;;;;;;;3.30;2.13;;;19.80;95.60;;;;;;6162893;23;20440;-80
2022/05/22 08:14:25;;;;;;;5.60;2.33;;;19.90;95.40;;;;;;6161986;23;20436;-79
2022/05/22 08:17:00;;;;;;;6.70;2.90;;;19.80;95.30;;;;;;6161780;23;20510;-79
2022/05/22 08:19:28;;;;;;;4.40;2.20;;;20.00;95.30;;;;;;6162311;23;20735;-79
2022/05/22 08:22:23;;;;;;;4.93;1.70;;;20.20;95.30;;;;;;6188794;23;20446;-78
2022/05/22 08:25:19;;;;;;;3.43;1.60;;;20.40;94.70;;;;;;6185962;23;20411;-79
2022/05/22 08:27:50;;;;;;;4.13;1.93;;;20.20;94.20;;;;;;6162470;23;20416;-79
2022/05/22 08:30:21;;;;;;;3.90;2.10;;;20.10;94.10;;;;;;6163425;23;20426;-78
2022/05/22 08:32:50;;;;;;;3.40;1.83;;;20.00;94.00;;;;;;6163867;23;20435;-79
2022/05/22 08:35:23;;;;;;;3.60;2.17;;;20.10;94.00;;;;;;6163453;23;20430;-80
2022/05/22 08:37:53;;;;;;;5.20;2.00;;;20.20;94.10;;;;;;6163435;23;20829;-79
2022/05/22 08:40:24;;;;;;;2.50;1.77;;;20.40;94.00;;;;;;6163291;23;20795;-79
2022/05/22 08:42:58;;;;;;;2.70;1.50;;;20.50;93.80;;;;;;6162490;23;20450;-79
2022/05/22 08:45:31;;;;;;;3.17;1.60;;;20.70;93.50;;;;;;6162656;23;20418;-78
2022/05/22 08:48:07;;;;;;;3.60;1.50;;;20.80;93.10;;;;;;6198482;23;20388;-78
2022/05/22 08:50:37;;;;;;;5.27;1.70;;;20.80;92.40;;;;;;6198697;23;20460;-79
2022/05/22 08:53:10;;;;;;;3.83;2.23;;;20.80;92.20;;;;;;6163113;23;20435;-78
2022/05/22 09:01:26;;;;;;;2.57;1.40;;;20.90;92.10;;;;;;6188236;23;20407;-79
2022/05/22 09:04:06;;;;;;;3.50;1.63;;;20.70;91.90;;;;;;6188771;23;20471;-79
2022/05/22 09:06:40;;;;;;;2.63;1.30;;;20.60;91.60;;;;;;6162007;23;20419;-78
2022/05/22 09:09:09;;;;;;;2.90;1.47;;;20.50;91.70;;;;;;6164106;23;20895;-79
2022/05/22 09:12:04;;;;;;;2.70;1.20;;;20.40;91.40;;;;;;6164147;23;20525;-79
2022/05/22 09:14:41;;;;;;;4.53;1.73;;;20.50;91.40;;;;;;6163658;23;20415;-78
2022/05/22 09:17:16;;;;;;;4.17;2.07;;;20.50;91.40;;;;;;6164173;23;20483;-78
2022/05/22 09:19:47;;;;;;;3.23;1.60;;;20.50;91.40;;;;;;6201131;23;20377;-78
2022/05/22 09:22:24;;;;;;;3.83;1.50;;;20.60;91.40;;;;;;6163299;23;20443;-78
2022/05/22 09:25:07;;;;;;;3.47;1.53;;;20.70;91.30;;;;;;6189791;23;20794;-78
2022/05/22 09:27:43;;;;;;;3.80;1.80;;;20.80;91.20;;;;;;6189894;23;20411;-78
2022/05/22 09:30:19;;;;;;;4.43;2.03;;;20.80;91.00;;;;;;6162898;23;20817;-78
2022/05/22 09:33:11;;;;;;;3.50;1.60;;;20.70;90.90;;;;;;6163175;23;20766;-78
2022/05/22 09:35:54;;;;;;;2.93;1.50;;;20.50;90.60;;;;;;6163412;23;20411;-78
2022/05/22 09:38:53;;;;;;;3.77;1.90;;;20.40;90.70;;;;;;6161884;23;20419;-78
2022/05/22 09:41:33;;;;;;;2.53;1.27;;;20.40;90.60;;;;;;6182182;23;20415;-74
2022/05/22 09:44:28;;;;;;;2.93;1.70;;;20.50;90.50;;;;;;6222678;23;20444;-75
2022/05/22 09:47:31;;;;;;;1.70;1.10;;;20.50;90.40;;;;;;6188312;23;20403;-75
2022/05/22 09:50:13;;;;;;;3.10;1.37;;;20.60;90.60;;;;;;6187895;23;20399;-74
2022/05/22 09:52:49;;;;;;;3.43;1.27;;;20.80;90.80;;;;;;6217206;23;20419;-75
2022/05/22 09:55:26;;;;;;;2.03;1.10;;;21.00;90.60;;;;;;6183311;23;20407;-75
2022/05/22 09:58:30;;;;;;;4.50;1.40;;;21.10;90.40;;;;;;6220481;23;20379;-75
2022/05/22 10:01:10;;;;;;;3.03;1.37;;;21.40;90.30;;;;;;6212662;23;20391;-75
2022/05/22 10:03:47;;;;;;;2.93;1.60;;;21.40;90.10;;;;;;6176607;23;20463;-77
2022/05/22 10:06:26;;;;;;;3.17;1.40;;;21.40;89.80;;;;;;6177088;23;20412;-76
2022/05/22 10:09:02;;;;;;;3.97;2.33;;;21.40;89.50;;;;;;6169848;23;20410;-76
2022/05/22 10:11:39;;;;;;;3.07;1.43;;;21.20;89.30;;;;;;6199067;23;20375;-76
2022/05/22 10:14:28;;;;;;;2.20;1.33;;;21.10;89.20;;;;;;6198334;23;20378;-76
2022/05/22 10:17:16;;;;;;;2.43;1.17;;;21.10;88.80;;;;;;6197188;23;20718;-75
2022/05/22 10:19:51;;;;;;;2.53;1.30;;;21.10;88.50;;;;;;6196949;23;20384;-76
2022/05/22 10:22:28;;;;;;;3.50;1.90;;;21.20;88.60;;;;;;6187194;23;20439;-76
2022/05/22 10:25:10;;;;;;;3.40;1.33;;;21.30;88.60;;;;;;6197059;23;20447;-76
2022/05/22 10:27:51;;;;;;;3.07;1.33;;;21.30;88.30;;;;;;6160713;23;20506;-76
2022/05/22 10:30:26;;;;;;;4.10;1.40;;;21.30;88.00;;;;;;6160503;23;20422;-75
2022/05/22 10:33:00;;;;;;;3.30;1.40;;;21.40;88.00;;;;;;6162037;23;20509;-78
2022/05/22 10:35:34;;;;;;;4.40;1.63;;;21.40;87.90;;;;;;6163908;23;20432;-79
2022/05/22 10:38:12;;;;;;;3.47;1.50;;;21.50;87.90;;;;;;6189246;23;20398;-79
2022/05/22 10:43:35;;;;;;;3.50;1.90;;;21.70;87.00;;;;;;6160669;23;20465;-77
2022/05/22 10:46:05;;;;;;;3.70;1.50;;;21.80;86.50;;;;;;6161730;23;20910;-77
2022/05/22 10:48:35;;;;;;;2.43;1.10;;;21.70;86.60;;;;;;6161592;23;20420;-77
2022/05/22 10:51:05;;;;;;;4.27;1.43;;;21.70;86.70;;;;;;6161179;23;20747;-77
2022/05/22 10:53:38;;;;;;;2.50;1.50;;;21.60;86.50;;;;;;6166490;23;20432;-78
2022/05/22 10:56:17;;;;;;;2.27;1.10;;;21.60;86.20;;;;;;6163375;23;20467;-78
2022/05/22 10:58:52;;;;;;;4.23;1.40;;;21.50;86.20;;;;;;6199346;23;20384;-78
2022/05/22 11:01:25;;;;;;;2.63;1.33;;;21.50;85.90;;;;;;6199404;23;20407;-78
2022/05/22 11:04:03;;;;;;;2.57;1.20;;;21.40;85.40;;;;;;6188632;23;20482;-78
2022/05/22 11:06:32;;;;;;;4.47;1.50;;;21.30;85.30;;;;;;6162101;23;20441;-78
2022/05/22 11:09:00;;;;;;;2.83;1.43;;;21.30;85.20;;;;;;6162713;23;20805;-78
2022/05/22 11:11:31;;;;;;;4.20;1.70;;;21.20;85.10;;;;;;6162225;23;20420;-78
2022/05/22 11:14:11;;;;;;;2.97;1.20;;;21.20;85.40;;;;;;6162249;23;20443;-78
2022/05/22 11:16:41;;;;;;;3.90;1.47;;;21.30;85.30;;;;;;6162892;23;20467;-78
2022/05/22 11:19:11;;;;;;;2.80;1.50;;;21.30;85.20;;;;;;6162439;23;20418;-78
2022/05/22 11:22:01;;;;;;;3.50;1.43;;;21.40;85.20;;;;;;6162548;23;20438;-78
2022/05/22 11:24:41;;;;;;;3.00;1.30;;;21.40;84.50;;;;;;6161852;23;20428;-78
2022/05/22 11:27:29;;;;;;;6.90;2.00;;;21.50;84.70;;;;;;6162179;23;20415;-78
2022/05/22 11:30:14;;;;;;;3.13;1.63;;;21.50;84.30;;;;;;6161933;23;20419;-78
2022/05/22 11:33:00;;;;;;;4.73;1.53;;;21.60;84.60;;;;;;6198391;23;20426;-78
2022/05/22 11:35:38;;;;;;;4.87;1.40;;;21.80;85.20;;;;;;6198858;23;20416;-78
2022/05/22 11:38:43;;;;;;;3.30;1.73;;;21.90;84.80;;;;;;6162334;23;20408;-78
2022/05/22 11:41:24;;;;;;;2.00;1.20;;;21.90;84.60;;;;;;6162029;23;20411;-78
2022/05/22 11:44:14;;;;;;;3.33;1.50;;;22.00;84.80;;;;;;6198768;23;20442;-79
2022/05/22 11:46:53;;;;;;;3.07;1.73;;;22.00;84.60;;;;;;6198821;23;20418;-78
2022/05/22 11:49:38;;;;;;;2.77;1.13;;;22.00;84.70;;;;;;6162853;23;20466;-78
2022/05/22 11:55:18;;;;;;;3.83;2.00;;;21.90;84.10;;;;;;6165017;23;20419;-79
2022/05/22 11:57:56;;;;;;;2.17;1.40;;;21.70;83.80;;;;;;6166821;23;20784;-78
2022/05/22 12:00:28;;;;;;;2.47;1.50;;;21.50;83.40;;;;;;6166698;23;20412;-78
2022/05/22 12:03:12;;;;;;;3.70;1.50;;;21.40;83.70;;;;;;6201830;23;20447;-79
2022/05/22 12:05:51;;;;;;;3.60;2.50;;;21.30;83.80;;;;;;6202965;23;20452;-78
2022/05/22 12:08:42;;;;;;;2.50;1.50;;;21.10;83.70;;;;;;6165466;23;20412;-78
2022/05/22 12:11:16;;;;;;;2.80;1.87;;;21.10;83.80;;;;;;6165419;23;20475;-78
2022/05/22 12:13:52;;;;;;;3.40;1.47;;;21.10;83.60;;;;;;6167382;23;20466;-78
2022/05/22 12:16:24;;;;;;;5.33;1.80;;;21.10;83.60;;;;;;6203172;23;20380;-78
2022/05/22 12:19:06;;;;;;;3.10;1.40;;;21.10;83.50;;;;;;6202816;23;20419;-78
2022/05/22 12:21:50;;;;;;;3.73;1.37;;;21.20;83.70;;;;;;6164753;23;20439;-78
2022/05/22 12:24:24;;;;;;;2.57;1.53;;;21.20;83.40;;;;;;6165797;23;20446;-79
2022/05/22 12:26:53;;;;;;;5.10;1.60;;;21.20;83.80;;;;;;6166137;23;20428;-78
2022/05/22 12:29:27;;;;;;;2.90;1.87;;;21.30;83.80;;;;;;6202505;23;20399;-78
2022/05/22 12:31:57;;;;;;;5.07;1.60;;;21.40;84.00;;;;;;6164277;23;20954;-79
2022/05/22 12:34:35;;;;;;;2.93;1.70;;;21.40;83.80;;;;;;6164171;23;20503;-78
2022/05/22 12:37:07;;;;;;;2.97;1.50;;;21.40;83.50;;;;;;6192090;23;20395;-78
2022/05/22 12:39:48;;;;;;;2.77;1.70;;;21.40;83.40;;;;;;6166359;23;20427;-79
2022/05/22 12:42:22;;;;;;;9.00;2.67;;;21.50;83.50;;;;;;6166220;23;20446;-79
2022/05/22 12:44:50;;;;;;;3.57;2.40;;;21.60;83.60;;;;;;6170579;23;20526;-79
2022/05/22 12:47:18;;;;;;;4.20;2.27;;;21.60;84.10;;;;;;6205785;23;20890;-79
2022/05/22 12:49:54;;;;;;;3.00;1.80;;;21.60;84.40;;;;;;6169687;23;20446;-79
2022/05/22 12:52:31;;;;;;;3.30;2.13;;;21.60;84.10;;;;;;6195407;23;20442;-78
2022/05/22 12:55:02;;;;;;;4.63;2.30;;;21.50;83.90;;;;;;6167144;23;20410;-78
2022/05/22 12:57:30;;;;;;;3.33;1.90;;;21.50;83.70;;;;;;6202110;23;20387;-76
2022/05/22 13:00:17;;;;;;;3.03;1.90;;;21.40;83.40;;;;;;6161278;23;20412;-75
2022/05/22 13:02:48;;;;;;;3.77;2.23;;;21.20;82.90;;;;;;6187315;23;20874;-75
2022/05/22 13:05:24;;;;;;;6.93;1.87;;;21.10;82.90;;;;;;6198068;23;20854;-74
2022/05/22 13:07:54;;;;;;;3.13;2.33;;;21.10;82.50;;;;;;6187602;23;20395;-75
2022/05/22 13:10:30;;;;;;;2.57;1.50;;;21.10;82.60;;;;;;6197111;23;20403;-75
2022/05/22 13:13:02;;;;;;;2.80;1.70;;;21.10;82.60;;;;;;6197210;23;20439;-75
2022/05/22 13:15:32;;;;;;;4.40;3.17;;;21.10;82.50;;;;;;6161191;23;20403;-75
2022/05/22 13:18:11;;;;;;;3.27;1.60;;;21.20;82.40;;;;;;6197345;23;20430;-75
2022/05/22 13:20:55;;;;;;;2.57;1.60;;;21.20;82.30;;;;;;6197645;23;20391;-75
2022/05/22 13:23:39;;;;;;;2.67;1.63;;;21.30;82.50;;;;;;6197311;23;20985;-75
2022/05/22 13:26:24;;;;;;;5.50;1.70;;;21.30;82.70;;;;;;6160793;23;20450;-75
2022/05/22 13:28:58;;;;;;;2.27;1.50;;;21.40;83.00;;;;;;6161040;23;20447;-75
2022/05/22 13:31:39;;;;;;;3.07;1.63;;;21.50;83.00;;;;;;6197161;23;20388;-75
2022/05/22 13:34:24;;;;;;;2.73;1.73;;;21.60;82.50;;;;;;6197245;23;20827;-75
2022/05/22 13:36:57;;;;;;;4.00;1.93;;;21.60;82.00;;;;;;6183029;23;20510;-75
2022/05/22 13:39:46;;;;;;;3.80;1.90;;;21.60;81.40;;;;;;6197074;23;20412;-75
2022/05/22 13:42:58;;;;;;;1.93;1.30;;;21.60;81.00;;;;;;6160652;23;20439;-75
2022/05/22 13:46:12;;;;;;;3.03;1.53;;;21.60;81.10;;;;;;6197275;23;20427;-75
2022/05/22 13:48:51;;;;;;;2.60;1.50;;;21.60;81.20;;;;;;6048094;23;20408;-74
2022/05/22 13:54:28;;;;;;;3.20;1.60;;;21.70;81.70;;;;;;6158291;23;20446;-74
2022/05/22 13:57:01;;;;;;;2.57;1.30;;;21.70;81.00;;;;;;6160637;23;20518;-74
2022/05/22 13:59:33;;;;;;;3.60;1.30;;;21.80;80.80;;;;;;6197334;23;20372;-74
2022/05/22 14:02:05;;;;;;;4.47;1.30;;;21.80;80.20;;;;;;6197325;23;20426;-74
2022/05/22 14:04:36;;;;;;;3.03;1.40;;;21.80;79.80;;;;;;6161231;23;20506;-74
2022/05/22 14:07:07;;;;;;;2.73;1.27;;;21.80;79.70;;;;;;6197263;23;20842;-74
2022/05/22 14:09:39;;;;;;;2.93;1.43;;;21.90;80.00;;;;;;6160522;23;20474;-74
2022/05/22 14:12:13;;;;;;;3.33;1.53;;;21.90;79.60;;;;;;6196772;23;20407;-74
2022/05/22 14:14:41;;;;;;;3.23;1.40;;;22.00;79.80;;;;;;6160478;23;20742;-74
2022/05/22 14:17:10;;;;;;;2.87;1.40;;;22.00;80.30;;;;;;6196772;23;20730;-74
2022/05/22 14:19:41;;;;;;;4.27;2.00;;;22.00;80.50;;;;;;6196750;23;20494;-74
2022/05/22 14:22:13;;;;;;;2.60;1.33;;;22.00;80.50;;;;;;6196966;23;20415;-74
2022/05/22 14:24:54;;;;;;;3.53;1.67;;;22.00;80.30;;;;;;6160227;23;20438;-75
2022/05/22 14:27:35;;;;;;;3.10;1.80;;;21.90;80.10;;;;;;6196690;23;20743;-74
2022/05/22 14:30:12;;;;;;;3.10;2.00;;;21.90;80.20;;;;;;6197274;23;20446;-74
2022/05/22 14:32:44;;;;;;;2.40;2.10;;;21.80;80.20;;;;;;6186912;23;20443;-74
2022/05/22 14:35:16;;;;;;;2.90;1.60;;;21.80;80.30;;;;;;6197490;23;20388;-74
2022/05/22 14:37:47;;;;;;;6.87;4.20;;;21.70;80.10;;;;;;6160321;23;20905;-74
2022/05/22 14:40:18;;;;;;;2.47;1.80;;;21.60;79.90;;;;;;6196906;23;20467;-74
2022/05/22 14:42:56;;;;;;;4.30;3.03;;;21.60;80.00;;;;;;6160326;23;20519;-73
2022/05/22 14:45:28;;;;;;;4.47;2.90;;;21.60;80.10;;;;;;6197306;23;20426;-74
2022/05/22 14:48:11;;;;;;;3.30;1.93;;;21.60;80.30;;;;;;6197150;23;20384;-74
2022/05/22 14:50:46;;;;;;;5.57;2.50;;;21.70;80.30;;;;;;6167611;23;20418;-79
2022/05/22 14:53:21;;;;;;;5.73;2.90;;;21.60;80.10;;;;;;6213699;23;20410;-80
2022/05/22 14:55:53;;;;;;;3.83;2.30;;;21.60;80.10;;;;;;6176300;23;20418;-80
2022/05/22 14:58:29;;;;;;;5.57;2.30;;;21.60;79.70;;;;;;6210625;23;20415;-75
2022/05/22 15:01:09;;;;;;;5.50;2.53;;;21.50;79.70;;;;;;6198244;23;20395;-77
2022/05/22 15:03:48;;;;;;;5.40;3.10;;;21.50;79.80;;;;;;6172728;23;20446;-77
2022/05/22 15:06:21;;;;;;;3.97;3.00;;;21.40;79.20;;;;;;6171800;23;20438;-77
2022/05/22 15:08:54;;;;;;;2.93;1.90;;;21.30;79.30;;;;;;6168865;23;20411;-77
2022/05/22 15:11:26;;;;;;;3.37;1.73;;;21.20;79.10;;;;;;6208006;23;20395;-77
2022/05/22 15:13:59;;;;;;;4.63;1.90;;;21.20;79.30;;;;;;6168268;23;20419;-77
2022/05/22 15:16:34;;;;;;;3.47;1.90;;;21.20;79.50;;;;;;6203745;23;20387;-77
2022/05/22 15:27:54;;;;;;;2.17;1.10;;;21.40;79.50;;;;;;6160584;23;20415;-77
2022/05/22 15:30:28;;;;;;;2.87;1.60;;;21.40;79.50;;;;;;6160958;23;20415;-77
2022/05/22 15:33:06;;;;;;;2.53;1.53;;;21.40;79.40;;;;;;6160590;23;20829;-77
2022/05/22 15:35:35;;;;;;;3.20;1.70;;;21.50;80.50;;;;;;6160728;23;20436;-77
2022/05/22 15:38:03;;;;;;;3.10;2.77;;;21.60;79.70;;;;;;6160461;23;20805;-77
2022/05/22 15:40:32;;;;;;;2.80;1.80;;;21.60;79.30;;;;;;6160540;23;20495;-78
2022/05/22 15:43:25;;;;;;;3.90;2.33;;;21.60;79.00;;;;;;6160722;23;20776;-78
2022/05/22 15:46:15;;;;;;;3.73;2.23;;;21.70;79.20;;;;;;6197049;23;20431;-78
2022/05/22 15:51:35;;;;;;;4.53;2.10;;;21.80;78.80;;;;;;6197060;23;20779;-77
2022/05/22 15:54:05;;;;;;;4.67;2.00;;;21.90;78.70;;;;;;6160043;23;20419;-77
2022/05/22 15:56:34;;;;;;;5.50;2.17;;;21.80;78.40;;;;;;6159560;23;20499;-77
2022/05/22 15:59:04;;;;;;;3.03;2.23;;;21.80;77.90;;;;;;6195914;23;20419;-77
2022/05/22 16:01:38;;;;;;;3.30;2.07;;;21.80;78.00;;;;;;6159735;23;20753;-77
2022/05/22 16:04:07;;;;;;;3.47;2.40;;;21.80;78.00;;;;;;6196425;23;20387;-77
2022/05/22 16:06:36;;;;;;;3.80;2.43;;;21.80;77.90;;;;;;6160272;23;20530;-77
2022/05/22 16:09:05;;;;;;;4.47;2.03;;;21.90;78.10;;;;;;6196524;23;20432;-77
2022/05/22 16:11:33;;;;;;;3.03;1.73;;;21.90;77.90;;;;;;6186055;23;20412;-77
2022/05/22 16:14:01;;;;;;;3.70;1.80;;;21.90;77.80;;;;;;6195707;23;20479;-77
2022/05/22 16:16:29;;;;;;;2.83;1.63;;;22.00;77.80;;;;;;6195712;23;20450;-77
2022/05/22 16:18:59;;;;;;;4.83;2.10;;;22.00;77.50;;;;;;6159502;23;20411;-77
2022/05/22 16:21:28;;;;;;;3.43;2.20;;;22.00;77.30;;;;;;6185623;23;20490;-77
2022/05/22 16:23:57;;;;;;;3.70;2.10;;;22.00;77.40;;;;;;6186194;23;20485;-77
2022/05/22 16:26:25;;;;;;;2.83;1.97;;;22.00;77.40;;;;;;6159331;23;20482;-77
2022/05/22 16:28:53;;;;;;;3.80;2.77;;;22.00;77.20;;;;;;6195862;23;20406;-77
2022/05/22 16:31:25;;;;;;;2.13;1.90;;;21.90;76.80;;;;;;6159501;23;20511;-78
2022/05/22 16:33:53;;;;;;;5.87;2.00;;;21.90;77.40;;;;;;6159346;23;20407;-77
2022/05/22 16:36:23;;;;;;;3.63;2.23;;;21.90;77.00;;;;;;6185951;23;20742;-77
2022/05/22 16:38:52;;;;;;;3.20;1.90;;;21.90;77.10;;;;;;6186067;23;20474;-77
2022/05/22 16:41:21;;;;;;;3.70;2.97;;;22.00;77.20;;;;;;6159304;23;20966;-77
2022/05/22 16:44:11;;;;;;;4.53;3.50;;;22.10;77.20;;;;;;6196192;23;20412;-77
2022/05/22 16:46:45;;;;;;;4.50;3.20;;;22.10;77.10;;;;;;6196724;23;20918;-76
2022/05/22 16:54:47;;;;;;;3.60;1.73;;;22.20;78.00;;;;;;6194285;23;20430;-77
2022/05/22 16:57:16;;;;;;;3.00;1.60;;;22.30;78.30;;;;;;6159188;23;20423;-77
2022/05/22 16:59:44;;;;;;;3.60;2.07;;;22.40;78.50;;;;;;6195492;23;20427;-77
2022/05/22 17:02:13;;;;;;;3.83;2.03;;;22.40;78.20;;;;;;6159112;23;20482;-77
2022/05/22 17:04:47;;;;;;;2.30;1.73;;;22.40;77.80;;;;;;6195541;23;20380;-76
2022/05/22 17:07:21;;;;;;;3.40;2.00;;;22.40;77.60;;;;;;6195380;23;20434;-76
2022/05/22 17:09:55;;;;;;;3.13;1.80;;;22.50;77.80;;;;;;6159227;23;20862;-76
2022/05/22 17:12:23;;;;;;;3.10;1.60;;;22.50;77.90;;;;;;6159159;23;20436;-76
2022/05/22 17:14:52;;;;;;;3.57;1.70;;;22.60;78.00;;;;;;6159086;23;20419;-76
2022/05/22 17:17:20;;;;;;;3.30;2.10;;;22.70;78.30;;;;;;6195436;23;20711;-76
2022/05/22 17:19:48;;;;;;;3.53;1.50;;;22.90;78.50;;;;;;6158978;23;20738;-76
2022/05/22 17:22:21;;;;;;;2.07;1.30;;;23.00;78.50;;;;;;6195350;23;20430;-76
2022/05/22 17:24:52;;;;;;;3.63;1.80;;;23.20;78.40;;;;;;6195815;23;20711;-76
2022/05/22 17:27:24;;;;;;;4.10;2.07;;;23.40;78.40;;;;;;6195268;23;20435;-76
2022/05/22 17:29:56;;;;;;;2.60;1.40;;;23.50;77.80;;;;;;6197570;23;20387;-76
2022/05/22 17:32:25;;;;;;;3.97;1.80;;;23.60;77.30;;;;;;6160815;23;20439;-76
2022/05/22 17:34:53;;;;;;;2.23;1.50;;;23.70;77.00;;;;;;6197145;23;20395;-76
2022/05/22 17:37:25;;;;;;;3.60;1.57;;;23.70;76.70;;;;;;6197101;23;20399;-76
2022/05/22 17:39:55;;;;;;;4.37;2.23;;;23.80;76.90;;;;;;6197584;23;20842;-76
2022/05/22 17:42:26;;;;;;;4.90;2.70;;;23.90;76.90;;;;;;6158120;23;20526;-74
2022/05/22 17:44:55;;;;;;;2.00;1.63;;;23.90;76.50;;;;;;6187486;23;20394;-74
2022/05/22 17:47:23;;;;;;;3.37;1.60;;;23.80;76.10;;;;;;6197752;23;20427;-73
2022/05/22 17:49:51;;;;;;;2.70;1.60;;;23.70;75.70;;;;;;6197303;23;20483;-73
2022/05/22 17:52:20;;;;;;;3.30;1.40;;;23.50;75.30;;;;;;6160636;23;20431;-74
2022/05/22 17:54:52;;;;;;;2.37;1.20;;;23.40;75.10;;;;;;6197696;23;20407;-74
2022/05/22 17:57:20;;;;;;;2.33;1.27;;;23.20;75.00;;;;;;6187277;23;20407;-74
2022/05/22 17:59:48;;;;;;;3.60;1.30;;;23.00;75.50;;;;;;6160504;23;20415;-74
2022/05/22 18:02:18;;;;;;;2.43;1.40;;;22.80;74.70;;;;;;6197007;23;20455;-74
2022/05/22 18:04:46;;;;;;;3.10;1.50;;;22.60;74.80;;;;;;6160595;23;20993;-74
2022/05/22 18:07:21;;;;;;;3.70;1.17;;;22.40;74.80;;;;;;6160336;23;20582;-74
2022/05/22 18:09:52;;;;;;;2.70;1.70;;;22.30;75.00;;;;;;6160677;23;20933;-74
2022/05/22 18:17:53;;;;;;;2.43;1.13;;;21.90;75.20;;;;;;6187166;23;20398;-75
2022/05/22 18:20:21;;;;;;;2.47;1.47;;;21.80;75.30;;;;;;6196718;23;20404;-75
2022/05/22 18:22:51;;;;;;;4.43;1.70;;;21.60;75.20;;;;;;6160314;23;20446;-75
2022/05/22 18:25:27;;;;;;;2.00;1.27;;;21.50;75.20;;;;;;6159894;23;21020;-76
2022/05/22 18:28:06;;;;;;;2.03;1.30;;;21.40;75.40;;;;;;6197169;23;20498;-75
2022/05/22 18:30:37;;;;;;;2.27;1.37;;;21.30;75.70;;;;;;6196576;23;20394;-75
2022/05/22 18:33:07;;;;;;;2.80;1.30;;;21.20;75.80;;;;;;6196447;23;20420;-75
2022/05/22 18:35:35;;;;;;;3.43;1.50;;;21.00;75.90;;;;;;6196595;23;20403;-75
2022/05/22 18:38:03;;;;;;;3.80;1.40;;;20.90;76.10;;;;;;6186677;23;20462;-75
2022/05/22 18:40:34;;;;;;;2.37;1.40;;;20.80;76.30;;;;;;6196825;23;20430;-75
2022/05/22 18:43:06;;;;;;;2.43;1.47;;;20.80;76.50;;;;;;6160089;23;20432;-75
2022/05/22 18:45:37;;;;;;;2.60;1.60;;;20.70;76.80;;;;;;6197196;23;20707;-75
2022/05/22 18:48:09;;;;;;;2.93;1.40;;;20.60;77.20;;;;;;6159998;23;20490;-75
2022/05/22 18:50:37;;;;;;;3.53;1.90;;;20.50;77.30;;;;;;6197139;23;20820;-75
2022/05/22 18:53:05;;;;;;;2.90;1.47;;;20.40;77.40;;;;;;6159985;23;20445;-75
2022/05/22 18:55:36;;;;;;;2.47;1.40;;;20.30;77.40;;;;;;6196416;23;20733;-74
2022/05/22 18:58:04;;;;;;;3.17;1.57;;;20.20;78.20;;;;;;6160640;23;20856;-75
2022/05/22 19:00:33;;;;;;;4.43;2.00;;;20.10;77.70;;;;;;6198042;23;20392;-75
2022/05/22 19:03:03;;;;;;;3.97;1.60;;;20.00;78.00;;;;;;6196532;23;20755;-75
2022/05/22 19:05:33;;;;;;;3.40;1.70;;;20.00;78.50;;;;;;6196619;23;20387;-76
2022/05/22 19:08:07;;;;;;;4.67;2.50;;;19.90;79.00;;;;;;6196473;23;20459;-75
2022/05/22 19:10:40;;;;;;;7.87;6.67;;;19.80;79.50;;;;;;6196427;23;20419;-78
2022/05/22 19:13:20;;;;;;;3.27;2.30;;;19.70;79.70;;;;;;6160236;23;20514;-76
2022/05/22 19:15:48;;;;;;;3.17;1.80;;;19.60;79.80;;;;;;6197203;23;20418;-78
2022/05/22 19:18:16;;;;;;;2.87;2.10;;;19.50;79.90;;;;;;6197416;23;20400;-73